Time;durP1;ratioP1;P1;durP2;ratioP2;P2;SDS_P1;SDS_P2;PMS_P1;PMS_P2;Temp;Humidity;BMP_temperature;BMP_pressure;BME280_temperature;BME280_humidity;BME280_pressure;Samples;Min_cycle;Max_cycle;Signal;HPM_P1;HPM_P2
2021/10/28 00:14:37;;;;;;;27.60;25.00;;;6.00;99.90;;;;;;4957524;28;20586;-93
2021/10/28 00:17:10;;;;;;;25.77;23.57;;;5.90;99.90;;;;;;4963468;28;20637;-92
2021/10/28 00:19:37;;;;;;;27.40;24.83;;;5.80;99.90;;;;;;4964971;28;20684;-92
2021/10/28 00:22:05;;;;;;;26.80;24.40;;;5.70;99.90;;;;;;4960576;28;20637;-92
2021/10/28 00:24:32;;;;;;;28.63;25.93;;;5.70;99.90;;;;;;4964523;28;21052;-92
2021/10/28 00:27:00;;;;;;;26.43;24.10;;;5.70;99.90;;;;;;4968065;28;20641;-92
2021/10/28 00:29:28;;;;;;;26.97;24.70;;;5.60;99.90;;;;;;4966361;28;20629;-92
2021/10/28 00:31:56;;;;;;;27.40;25.03;;;5.50;99.90;;;;;;4966122;28;21056;-93
2021/10/28 00:34:24;;;;;;;29.80;27.20;;;5.50;99.90;;;;;;4945711;28;20684;-91
2021/10/28 00:36:52;;;;;;;29.37;26.57;;;5.50;99.90;;;;;;4964443;28;21406;-92
2021/10/28 00:39:21;;;;;;;29.50;26.90;;;5.50;99.90;;;;;;4958454;28;20757;-93
2021/10/28 00:41:49;;;;;;;28.57;26.07;;;5.50;99.90;;;;;;4957012;28;21001;-92
2021/10/28 00:44:17;;;;;;;30.33;27.63;;;5.50;99.90;;;;;;4961886;28;20679;-92
2021/10/28 00:46:45;;;;;;;30.87;28.17;;;5.60;99.90;;;;;;4964787;28;20643;-92
2021/10/28 00:49:13;;;;;;;28.70;26.20;;;5.60;99.90;;;;;;4963047;28;20705;-91
2021/10/28 00:51:41;;;;;;;27.63;25.23;;;5.50;99.90;;;;;;4973530;28;21183;-91
2021/10/28 00:54:12;;;;;;;28.47;25.87;;;5.50;99.90;;;;;;4967212;28;21329;-91
2021/10/28 00:56:42;;;;;;;31.50;28.50;;;5.40;99.90;;;;;;4967006;28;20625;-92
2021/10/28 00:59:09;;;;;;;26.40;24.13;;;5.40;99.90;;;;;;4967709;28;20670;-93
2021/10/28 01:01:38;;;;;;;27.73;25.17;;;5.40;99.90;;;;;;4970606;28;20689;-93
2021/10/28 01:04:06;;;;;;;27.40;24.87;;;5.30;99.90;;;;;;4970091;28;20641;-92
2021/10/28 01:06:34;;;;;;;27.70;25.27;;;5.30;99.90;;;;;;4966466;28;20636;-93
2021/10/28 01:09:03;;;;;;;27.20;24.83;;;5.40;99.90;;;;;;4969818;28;20656;-92
2021/10/28 01:11:30;;;;;;;26.77;24.40;;;5.40;99.90;;;;;;4950123;28;20661;-93
2021/10/28 01:13:58;;;;;;;28.10;25.60;;;5.30;99.90;;;;;;4967291;28;20629;-92
2021/10/28 01:16:26;;;;;;;25.80;23.53;;;5.20;99.90;;;;;;4967610;28;20638;-93
2021/10/28 01:18:55;;;;;;;25.37;23.17;;;5.20;99.90;;;;;;4966056;28;21207;-92
2021/10/28 01:21:24;;;;;;;26.60;23.90;;;5.20;99.90;;;;;;4969339;28;20670;-92
2021/10/28 01:23:51;;;;;;;26.97;24.50;;;5.20;99.90;;;;;;4962964;28;20680;-92
2021/10/28 01:26:19;;;;;;;27.57;25.17;;;5.10;99.90;;;;;;4963451;28;20645;-92
2021/10/28 01:28:55;;;;;;;26.83;24.33;;;5.10;99.90;;;;;;4973787;28;20739;-92
2021/10/28 01:31:25;;;;;;;26.93;24.40;;;5.10;99.90;;;;;;4968586;28;20664;-92
2021/10/28 01:33:54;;;;;;;25.70;23.40;;;5.00;99.90;;;;;;4969659;28;20656;-92
2021/10/28 01:36:24;;;;;;;25.13;22.97;;;5.10;99.90;;;;;;4951034;28;20627;-92
2021/10/28 01:38:52;;;;;;;27.30;25.00;;;5.00;99.90;;;;;;4971575;28;20666;-92
2021/10/28 01:41:19;;;;;;;28.33;25.90;;;5.10;99.90;;;;;;4965586;28;20668;-92
2021/10/28 01:43:47;;;;;;;25.63;23.43;;;5.00;99.90;;;;;;4971409;28;20995;-92
2021/10/28 01:46:15;;;;;;;27.20;24.70;;;5.00;99.90;;;;;;4966801;28;20754;-93
2021/10/28 01:48:43;;;;;;;27.20;24.90;;;5.00;99.90;;;;;;4964471;28;20648;-93
2021/10/28 01:51:11;;;;;;;24.47;22.07;;;5.00;99.90;;;;;;4977075;28;20711;-92
2021/10/28 01:53:43;;;;;;;25.10;22.90;;;4.90;99.90;;;;;;4986567;28;20655;-92
2021/10/28 01:56:10;;;;;;;28.47;25.90;;;4.90;99.90;;;;;;4982799;28;20635;-92
2021/10/28 01:58:37;;;;;;;28.87;26.20;;;5.00;99.90;;;;;;4984928;28;20708;-92
2021/10/28 02:01:06;;;;;;;27.40;24.87;;;5.00;99.90;;;;;;4979374;28;20688;-91
2021/10/28 02:03:33;;;;;;;27.33;25.10;;;5.00;99.90;;;;;;4965224;28;20636;-92
2021/10/28 02:06:00;;;;;;;27.73;25.33;;;4.90;99.90;;;;;;4964500;28;20646;-92
2021/10/28 02:08:27;;;;;;;28.90;26.43;;;4.90;99.90;;;;;;4985102;28;20710;-93
2021/10/28 02:10:56;;;;;;;29.37;26.57;;;4.90;99.90;;;;;;4981285;28;20675;-91
2021/10/28 02:13:23;;;;;;;33.83;30.37;;;5.10;99.90;;;;;;4970646;28;20729;-92
2021/10/28 02:15:49;;;;;;;28.07;25.57;;;5.00;99.90;;;;;;4967914;28;20632;-93
2021/10/28 02:18:17;;;;;;;29.30;26.60;;;4.90;99.90;;;;;;4964416;28;20640;-92
2021/10/28 02:20:44;;;;;;;28.00;25.53;;;4.80;99.90;;;;;;4966782;28;20774;-90
2021/10/28 02:23:11;;;;;;;27.63;25.33;;;4.90;99.90;;;;;;4981254;28;20677;-91
2021/10/28 02:25:39;;;;;;;27.97;25.60;;;4.90;99.90;;;;;;4987972;28;20700;-91
2021/10/28 02:28:07;;;;;;;27.97;25.67;;;4.70;99.90;;;;;;4970308;28;20667;-93
2021/10/28 02:30:36;;;;;;;29.63;27.10;;;4.70;99.90;;;;;;4970260;28;20657;-92
2021/10/28 02:33:03;;;;;;;30.00;27.23;;;4.70;99.90;;;;;;4971043;28;20674;-93
2021/10/28 02:35:30;;;;;;;27.83;25.37;;;4.80;99.90;;;;;;4972010;28;20628;-92
2021/10/28 02:37:57;;;;;;;27.93;25.50;;;4.70;99.90;;;;;;4965121;28;20637;-91
2021/10/28 02:40:28;;;;;;;28.13;25.43;;;4.70;99.90;;;;;;4964827;28;21326;-91
2021/10/28 02:42:55;;;;;;;27.37;25.07;;;4.70;99.90;;;;;;4970826;28;20648;-91
2021/10/28 02:45:23;;;;;;;26.67;24.37;;;4.70;99.90;;;;;;4966681;28;20652;-90
2021/10/28 02:47:51;;;;;;;27.70;25.30;;;4.70;99.90;;;;;;4965115;28;20657;-91
2021/10/28 02:50:19;;;;;;;28.57;26.10;;;4.70;99.90;;;;;;4970196;28;20666;-90
2021/10/28 02:52:46;;;;;;;27.97;25.60;;;4.70;99.90;;;;;;4975440;28;20654;-92
2021/10/28 02:55:13;;;;;;;26.57;24.30;;;4.70;99.90;;;;;;4964263;28;20637;-92
2021/10/28 02:57:41;;;;;;;26.53;24.27;;;4.80;99.90;;;;;;4967571;28;20634;-91
2021/10/28 03:00:10;;;;;;;26.30;24.10;;;4.90;99.90;;;;;;4970335;28;20708;-91
2021/10/28 03:02:38;;;;;;;27.33;25.00;;;4.80;99.90;;;;;;4970404;28;20622;-91
2021/10/28 03:05:06;;;;;;;26.33;24.03;;;4.90;99.90;;;;;;4969627;28;21270;-91
2021/10/28 03:07:34;;;;;;;27.30;24.90;;;4.80;99.90;;;;;;4964791;28;20744;-91
2021/10/28 03:10:04;;;;;;;28.37;26.00;;;4.90;99.90;;;;;;4967067;28;20730;-92
2021/10/28 03:12:31;;;;;;;27.10;24.80;;;5.00;99.90;;;;;;4964771;28;20633;-91
2021/10/28 03:15:01;;;;;;;27.20;24.87;;;5.10;99.90;;;;;;4966764;28;20694;-93
2021/10/28 03:17:38;;;;;;;28.87;25.93;;;5.20;99.90;;;;;;4968850;28;20637;-92
2021/10/28 03:25:41;;;;;;;69.13;33.83;;;5.40;99.90;;;;;;4969316;28;20634;-92
2021/10/28 03:28:16;;;;;;;38.63;34.03;;;5.40;99.90;;;;;;4961791;28;20645;-93
2021/10/28 03:30:44;;;;;;;31.10;28.20;;;5.50;99.90;;;;;;4971987;28;20660;-92
2021/10/28 03:33:15;;;;;;;167.73;38.83;;;5.60;99.90;;;;;;4967871;28;20645;-92
2021/10/28 03:35:47;;;;;;;467.60;67.87;;;5.70;99.90;;;;;;4975907;28;20645;-93
2021/10/28 03:38:19;;;;;;;260.80;47.83;;;5.80;99.90;;;;;;4960836;28;20644;-93
2021/10/28 03:43:53;;;;;;;613.57;64.30;;;5.70;99.90;;;;;;4962011;28;20609;-92
2021/10/28 03:46:45;;;;;;;177.40;43.17;;;5.60;99.90;;;;;;4967816;28;20710;-92
2021/10/28 04:19:49;;;;;;;223.73;40.53;;;5.50;99.90;;;;;;4964604;28;20644;-93
2021/10/28 04:30:29;;;;;;;240.43;44.37;;;5.30;99.90;;;;;;4950447;28;20682;-93
2021/10/28 04:32:57;;;;;;;236.70;45.63;;;5.20;99.90;;;;;;4973602;28;20648;-95
2021/10/28 04:35:24;;;;;;;441.47;65.37;;;5.30;99.90;;;;;;4968874;28;20642;-94
2021/10/28 04:37:51;;;;;;;327.60;43.50;;;5.30;99.90;;;;;;4968724;28;20711;-93
2021/10/28 04:40:20;;;;;;;228.07;40.97;;;5.20;99.90;;;;;;4973018;28;20665;-93
2021/10/28 04:42:51;;;;;;;740.60;72.60;;;5.20;99.90;;;;;;4964816;28;20638;-94
2021/10/28 04:45:18;;;;;;;516.37;56.23;;;5.10;99.90;;;;;;4956992;28;20687;-94
2021/10/28 04:47:45;;;;;;;234.57;41.40;;;5.10;99.90;;;;;;4970316;28;21382;-94
2021/10/28 04:50:13;;;;;;;222.80;40.10;;;5.10;99.90;;;;;;4969083;28;20673;-93
2021/10/28 04:52:40;;;;;;;278.10;51.50;;;5.10;99.90;;;;;;4970169;28;21072;-93
2021/10/28 04:55:13;;;;;;;190.57;43.33;;;5.00;99.90;;;;;;4970723;28;21191;-94
2021/10/28 04:57:42;;;;;;;322.07;53.93;;;5.00;99.90;;;;;;4973946;28;20636;-92
2021/10/28 05:00:10;;;;;;;111.33;35.33;;;5.10;99.90;;;;;;4967283;28;20688;-92
2021/10/28 05:02:37;;;;;;;329.43;38.97;;;5.00;99.90;;;;;;4972921;28;20659;-92
2021/10/28 05:05:04;;;;;;;305.97;42.50;;;5.00;99.90;;;;;;4988474;28;20616;-92
2021/10/28 05:07:34;;;;;;;126.23;30.53;;;5.00;99.90;;;;;;4980501;28;20630;-92
2021/10/28 05:10:04;;;;;;;299.27;49.47;;;5.00;99.90;;;;;;4970037;28;20659;-95
2021/10/28 05:12:32;;;;;;;200.13;35.00;;;5.00;99.90;;;;;;4975936;28;20629;-94
2021/10/28 05:17:42;;;;;;;208.07;41.77;;;5.10;99.90;;;;;;4976158;28;20664;-95
2021/10/28 05:20:21;;;;;;;312.67;49.03;;;5.10;99.90;;;;;;4967948;28;20771;-94
2021/10/28 05:22:48;;;;;;;185.53;31.20;;;5.00;99.90;;;;;;4965092;28;21184;-93
2021/10/28 05:25:15;;;;;;;214.23;36.60;;;5.10;99.90;;;;;;4975880;28;21009;-95
2021/10/28 05:27:42;;;;;;;188.67;33.23;;;5.10;99.90;;;;;;4969709;28;21181;-95
2021/10/28 05:30:15;;;;;;;179.93;36.03;;;5.10;99.90;;;;;;4974011;28;20664;-94
2021/10/28 05:32:44;;;;;;;180.07;32.47;;;5.10;99.90;;;;;;4975960;28;20713;-95
2021/10/28 05:35:20;;;;;;;229.67;33.10;;;5.10;99.90;;;;;;4981978;28;20646;-93
2021/10/28 05:37:50;;;;;;;204.57;32.97;;;5.00;99.90;;;;;;4968325;28;20641;-94
2021/10/28 05:40:17;;;;;;;343.17;48.00;;;5.10;99.90;;;;;;4974739;28;20673;-94
2021/10/28 05:45:37;;;;;;;189.20;29.00;;;5.10;99.90;;;;;;4974954;28;20625;-94
2021/10/28 05:48:06;;;;;;;156.53;30.00;;;5.00;99.90;;;;;;4973968;28;20688;-93
2021/10/28 05:50:40;;;;;;;234.00;37.67;;;5.00;99.90;;;;;;4977899;28;20653;-95
2021/10/28 05:53:09;;;;;;;450.63;46.80;;;4.90;99.90;;;;;;4977471;28;20644;-94
2021/10/28 05:55:37;;;;;;;319.20;42.07;;;4.70;99.90;;;;;;4971964;28;20703;-93
2021/10/28 05:58:08;;;;;;;333.23;46.57;;;4.60;99.90;;;;;;4974501;28;20643;-94
2021/10/28 06:00:38;;;;;;;180.40;28.63;;;4.60;99.90;;;;;;4977246;28;20705;-93
2021/10/28 06:03:08;;;;;;;252.60;36.97;;;4.70;99.90;;;;;;4981591;28;20644;-95
2021/10/28 06:05:37;;;;;;;382.37;43.30;;;4.80;99.90;;;;;;4971200;28;20735;-93
2021/10/28 06:08:06;;;;;;;164.40;33.27;;;4.60;99.90;;;;;;4973978;28;21230;-94
2021/10/28 06:10:33;;;;;;;125.67;32.33;;;4.70;99.90;;;;;;4969416;28;20666;-94
2021/10/28 06:13:02;;;;;;;407.67;47.23;;;4.60;99.90;;;;;;4975269;28;21024;-94
2021/10/28 06:15:35;;;;;;;285.50;35.10;;;4.60;99.90;;;;;;4972442;28;20772;-94
2021/10/28 06:20:50;;;;;;;270.50;37.67;;;4.60;99.90;;;;;;4977555;28;20684;-95
2021/10/28 06:23:19;;;;;;;163.23;28.37;;;4.70;99.90;;;;;;4976995;28;20728;-94
2021/10/28 06:25:49;;;;;;;249.17;32.93;;;4.60;99.90;;;;;;4979084;28;20720;-94
2021/10/28 06:28:18;;;;;;;113.87;25.47;;;4.80;99.90;;;;;;4973317;28;20907;-95
2021/10/28 06:30:51;;;;;;;288.20;42.07;;;4.70;99.90;;;;;;4973286;28;20726;-96
2021/10/28 06:33:28;;;;;;;112.67;27.07;;;4.60;99.90;;;;;;4979294;28;20630;-96
2021/10/28 06:36:03;;;;;;;153.90;27.00;;;4.70;99.90;;;;;;4977011;28;21125;-95
2021/10/28 06:38:33;;;;;;;225.27;31.23;;;4.70;99.90;;;;;;4977904;28;20642;-95
2021/10/28 06:43:53;;;;;;;185.30;33.37;;;4.80;99.90;;;;;;4980630;28;20652;-95
2021/10/28 06:46:26;;;;;;;141.63;27.40;;;4.70;99.90;;;;;;4977569;28;20629;-94
2021/10/28 06:49:20;;;;;;;146.93;28.97;;;4.90;99.90;;;;;;4981635;28;20662;-95
2021/10/28 06:51:48;;;;;;;124.30;26.43;;;4.70;99.90;;;;;;5003011;28;20733;-95
2021/10/28 06:54:28;;;;;;;104.73;24.27;;;4.80;99.90;;;;;;4983047;28;20669;-94
2021/10/28 07:02:34;;;;;;;175.87;31.33;;;4.90;99.90;;;;;;4967530;28;20793;-90
2021/10/28 07:05:05;;;;;;;287.07;42.43;;;4.90;99.90;;;;;;4967071;28;20648;-90
2021/10/28 07:07:34;;;;;;;170.97;30.53;;;4.90;99.90;;;;;;4965778;28;20657;-89
2021/10/28 07:10:08;;;;;;;152.30;26.77;;;5.00;99.90;;;;;;4968681;28;21205;-90
2021/10/28 07:12:49;;;;;;;176.67;32.77;;;4.90;99.90;;;;;;4965415;28;20637;-90
2021/10/28 07:15:20;;;;;;;150.80;25.53;;;5.00;99.90;;;;;;4966171;28;20675;-90
2021/10/28 07:32:15;;;;;;;106.40;26.40;;;5.20;99.90;;;;;;4931244;29;20818;-94
2021/10/28 07:34:57;;;;;;;117.50;22.37;;;5.30;99.90;;;;;;4973871;28;20630;-93
2021/10/28 07:57:24;;;;;;;173.17;25.50;;;5.70;99.90;;;;;;4988125;28;20714;-93
2021/10/28 08:06:01;;;;;;;140.03;22.77;;;5.90;99.90;;;;;;4987257;28;20634;-94
2021/10/28 08:17:24;;;;;;;187.13;23.17;;;6.50;99.90;;;;;;4988165;28;20681;-94
2021/10/28 08:19:55;;;;;;;229.30;25.73;;;6.40;99.90;;;;;;4986430;28;20634;-93
2021/10/28 08:22:25;;;;;;;269.37;27.47;;;6.40;99.90;;;;;;4984365;28;20676;-93
2021/10/28 08:30:25;;;;;;;154.87;21.37;;;6.30;99.90;;;;;;4988216;28;20609;-92
2021/10/28 08:32:54;;;;;;;352.93;30.33;;;6.30;99.90;;;;;;4995370;28;20740;-93
2021/10/28 08:35:21;;;;;;;400.30;33.27;;;6.30;99.90;;;;;;4992460;28;20606;-93
2021/10/28 08:37:55;;;;;;;188.23;25.80;;;6.40;99.90;;;;;;4990843;28;20679;-94
2021/10/28 08:40:26;;;;;;;163.03;22.67;;;6.50;99.90;;;;;;4990643;28;20648;-94
2021/10/28 08:42:57;;;;;;;111.80;20.03;;;6.70;99.90;;;;;;4994188;28;20646;-94
2021/10/28 08:45:24;;;;;;;93.37;19.17;;;6.80;99.90;;;;;;4988805;28;20628;-94
2021/10/28 08:47:55;;;;;;;129.80;20.10;;;6.90;99.90;;;;;;4992892;28;20652;-93
2021/10/28 08:53:27;;;;;;;333.67;29.10;;;7.00;99.90;;;;;;4984455;28;20633;-93
2021/10/28 08:55:59;;;;;;;58.33;15.20;;;7.00;99.90;;;;;;4983224;28;20645;-93
2021/10/28 09:30:23;;;;;;;14.30;13.13;;;9.00;99.90;;;;;;5034050;28;20615;-96
2021/10/28 09:55:03;;;;;;;12.20;11.20;;;11.50;99.90;;;;;;5134434;23;21155;-96
2021/10/28 10:13:30;;;;;;;14.50;13.30;;;13.40;99.90;;;;;;5027829;28;20667;-96
2021/10/28 10:16:16;;;;;;;14.20;13.00;;;13.60;99.90;;;;;;5021931;28;20632;-96
2021/10/28 10:18:50;;;;;;;14.73;13.53;;;13.80;99.90;;;;;;5015637;28;20609;-96
2021/10/28 14:22:53;;;;;;;11.07;10.27;;;24.10;74.60;;;;;;4971788;28;21322;-93
2021/10/28 14:37:02;;;;;;;11.73;10.87;;;23.70;77.80;;;;;;4963793;28;20692;-95
2021/10/28 15:01:56;;;;;;;8.73;7.93;;;24.10;77.60;;;;;;4968869;28;20726;-93
2021/10/28 15:29:24;;;;;;;11.00;9.90;;;23.10;86.40;;;;;;4981402;28;20986;-96
2021/10/28 15:32:32;;;;;;;11.27;10.27;;;21.60;89.50;;;;;;4989562;28;20629;-95
2021/10/28 15:37:53;;;;;;;10.17;8.27;;;18.70;99.90;;;;;;4978170;28;20659;-94
2021/10/28 15:40:28;;;;;;;8.83;7.80;;;17.40;99.90;;;;;;4985060;28;20975;-95
2021/10/28 15:54:57;;;;;;;8.70;7.47;;;15.20;99.90;;;;;;4903542;29;20699;-93
2021/10/28 15:57:41;;;;;;;9.23;6.13;;;14.80;99.90;;;;;;4969146;28;20770;-94
2021/10/28 16:22:14;;;;;;;6.63;5.93;;;12.80;99.90;;;;;;5006076;28;20691;-92
2021/10/28 16:24:46;;;;;;;6.90;4.87;;;12.60;99.90;;;;;;5000680;28;20637;-93
2021/10/28 16:27:18;;;;;;;5.20;4.70;;;12.40;99.90;;;;;;4995718;28;20668;-91
2021/10/28 16:29:46;;;;;;;5.17;4.77;;;12.20;99.90;;;;;;4982877;28;20632;-92
2021/10/28 16:32:17;;;;;;;5.30;4.90;;;12.20;99.90;;;;;;4995217;28;20669;-93
2021/10/28 16:34:44;;;;;;;4.57;4.10;;;12.00;99.90;;;;;;4986690;28;21038;-93
2021/10/28 16:37:13;;;;;;;6.47;5.87;;;11.90;99.90;;;;;;4984719;28;20672;-93
2021/10/28 16:39:42;;;;;;;8.60;7.80;;;11.70;99.90;;;;;;4986496;28;20668;-93
2021/10/28 16:42:09;;;;;;;6.93;6.43;;;11.60;99.90;;;;;;4985396;28;21254;-90
2021/10/28 16:44:38;;;;;;;7.53;6.47;;;11.50;99.90;;;;;;4986617;28;20625;-92
2021/10/28 16:47:05;;;;;;;7.70;6.90;;;11.40;99.90;;;;;;4992041;28;20625;-91
2021/10/28 16:49:53;;;;;;;9.13;8.43;;;11.30;99.90;;;;;;4993365;28;21241;-93
2021/10/28 16:52:36;;;;;;;9.73;8.93;;;11.30;99.90;;;;;;4983353;28;20712;-94
2021/10/28 16:55:13;;;;;;;11.50;10.40;;;11.10;99.90;;;;;;4992789;28;20628;-94
2021/10/28 16:57:41;;;;;;;8.43;7.73;;;10.90;99.90;;;;;;4994431;28;20632;-91
2021/10/28 17:00:09;;;;;;;8.00;7.30;;;10.90;99.90;;;;;;4984029;28;21072;-90
2021/10/28 17:02:36;;;;;;;6.57;5.50;;;10.80;99.90;;;;;;4984136;28;20986;-91
2021/10/28 17:05:10;;;;;;;6.83;6.17;;;10.70;99.90;;;;;;4983785;28;20633;-91
2021/10/28 17:07:37;;;;;;;7.97;7.13;;;10.70;99.90;;;;;;4984041;28;20629;-91
2021/10/28 17:10:06;;;;;;;7.30;6.60;;;10.50;99.90;;;;;;4990030;28;20667;-92
2021/10/28 17:12:39;;;;;;;7.23;6.47;;;10.50;99.90;;;;;;4993999;28;20647;-91
2021/10/28 17:15:09;;;;;;;11.40;10.40;;;10.30;99.90;;;;;;4988009;28;21187;-90
2021/10/28 17:17:38;;;;;;;9.97;8.93;;;10.20;99.90;;;;;;4994744;28;21217;-91
2021/10/28 17:20:09;;;;;;;16.00;14.50;;;10.10;99.90;;;;;;4985713;28;21223;-92
2021/10/28 17:22:38;;;;;;;14.77;13.37;;;10.10;99.90;;;;;;4987563;28;20649;-92
2021/10/28 17:25:17;;;;;;;25.60;22.97;;;10.00;99.90;;;;;;4991039;28;20708;-90
2021/10/28 17:27:44;;;;;;;12.70;11.40;;;10.00;99.90;;;;;;4988764;28;21254;-92
2021/10/28 17:32:55;;;;;;;9.50;8.70;;;10.00;99.90;;;;;;4998969;28;21527;-92
2021/10/28 17:35:42;;;;;;;9.67;8.77;;;9.90;99.90;;;;;;4994052;28;20628;-91
2021/10/28 17:38:11;;;;;;;10.07;9.07;;;9.80;99.90;;;;;;4997052;28;20632;-92
2021/10/28 17:40:38;;;;;;;8.70;7.90;;;9.80;99.90;;;;;;5001897;28;20675;-91
2021/10/28 17:43:10;;;;;;;8.17;7.37;;;9.80;99.90;;;;;;5006298;28;20652;-92
2021/10/28 17:45:37;;;;;;;9.53;8.53;;;9.80;99.90;;;;;;5006988;28;21198;-92
2021/10/28 17:48:06;;;;;;;10.30;9.30;;;9.70;99.90;;;;;;4995245;28;20976;-92
2021/10/28 17:50:34;;;;;;;8.40;7.40;;;9.60;99.90;;;;;;4988602;28;20647;-93
2021/10/28 17:53:18;;;;;;;8.27;7.47;;;9.60;99.90;;;;;;4990601;28;20660;-92
2021/10/28 17:55:47;;;;;;;14.80;12.07;;;9.50;99.90;;;;;;4996028;28;20642;-92
2021/10/28 17:58:14;;;;;;;9.60;8.40;;;9.50;99.90;;;;;;4998923;28;20632;-92
2021/10/28 18:00:41;;;;;;;7.47;6.87;;;9.40;99.90;;;;;;4987847;28;20659;-92
2021/10/28 18:03:09;;;;;;;5.93;5.43;;;9.30;99.90;;;;;;4991204;28;21046;-92
2021/10/28 18:05:38;;;;;;;8.17;7.47;;;9.30;99.90;;;;;;4989404;28;20624;-92
2021/10/28 18:08:08;;;;;;;7.10;6.50;;;9.30;99.90;;;;;;4988088;28;20648;-92
2021/10/28 18:10:41;;;;;;;12.73;11.53;;;9.20;99.90;;;;;;4995571;28;20657;-92
2021/10/28 18:13:12;;;;;;;9.23;7.47;;;9.20;99.90;;;;;;4980124;28;20724;-93
2021/10/28 18:15:39;;;;;;;8.87;8.03;;;9.10;99.90;;;;;;4986072;28;21377;-92
2021/10/28 18:18:06;;;;;;;8.00;7.30;;;9.00;99.90;;;;;;4989356;28;20632;-92
2021/10/28 18:20:49;;;;;;;7.50;6.90;;;8.90;99.90;;;;;;4989765;28;20667;-92
2021/10/28 18:23:19;;;;;;;7.70;7.00;;;8.90;99.90;;;;;;4969730;28;20692;-93
2021/10/28 18:25:53;;;;;;;8.47;7.67;;;8.80;99.90;;;;;;4988268;28;20972;-92
2021/10/28 18:28:23;;;;;;;9.07;8.07;;;8.70;99.90;;;;;;4983681;28;20613;-92
2021/10/28 18:30:51;;;;;;;8.97;8.20;;;8.70;99.90;;;;;;4986637;28;20669;-92
2021/10/28 18:33:21;;;;;;;10.13;9.33;;;8.70;99.90;;;;;;4990600;28;21145;-92
2021/10/28 18:35:51;;;;;;;11.63;10.47;;;8.70;99.90;;;;;;4988926;28;20625;-92
2021/10/28 18:38:18;;;;;;;10.37;9.53;;;8.60;99.90;;;;;;4982820;28;20644;-92
2021/10/28 18:40:47;;;;;;;10.57;9.57;;;8.60;99.90;;;;;;4988316;28;21011;-92
2021/10/28 18:43:17;;;;;;;12.83;11.53;;;8.50;99.90;;;;;;4987112;28;20679;-92
2021/10/28 18:45:44;;;;;;;10.93;10.10;;;8.60;99.90;;;;;;4987053;28;20625;-92
2021/10/28 18:48:12;;;;;;;9.30;8.50;;;8.50;99.90;;;;;;4994861;28;20747;-92
2021/10/28 18:50:39;;;;;;;9.93;9.10;;;8.50;99.90;;;;;;4987530;28;20668;-92
2021/10/28 18:53:06;;;;;;;12.33;11.27;;;8.40;99.90;;;;;;4994355;28;20635;-92
2021/10/28 18:55:33;;;;;;;9.87;8.97;;;8.40;99.90;;;;;;4989657;28;21165;-92
2021/10/28 18:58:06;;;;;;;11.10;9.93;;;8.30;99.90;;;;;;5000798;28;20629;-91
2021/10/28 19:00:35;;;;;;;14.47;13.17;;;8.20;99.90;;;;;;4983937;28;20784;-92
2021/10/28 19:03:02;;;;;;;11.37;10.47;;;8.20;99.90;;;;;;4988309;28;20834;-92
2021/10/28 19:05:29;;;;;;;10.03;9.23;;;8.20;99.90;;;;;;4993452;28;21035;-91
2021/10/28 19:07:58;;;;;;;9.73;8.83;;;8.20;99.90;;;;;;4995320;28;20605;-92
2021/10/28 19:10:26;;;;;;;10.60;9.80;;;8.10;99.90;;;;;;5005629;28;20648;-92
2021/10/28 19:12:54;;;;;;;12.70;11.60;;;8.10;99.90;;;;;;4983314;28;20626;-91
2021/10/28 19:15:22;;;;;;;10.47;9.67;;;8.20;99.90;;;;;;4983881;28;20660;-91
2021/10/28 19:17:52;;;;;;;12.77;11.67;;;8.10;99.90;;;;;;4982849;28;20664;-91
2021/10/28 19:20:19;;;;;;;12.67;11.57;;;8.10;99.90;;;;;;4981911;28;20657;-91
2021/10/28 19:22:56;;;;;;;14.70;13.20;;;8.00;99.90;;;;;;4992919;28;20671;-91
2021/10/28 19:25:23;;;;;;;15.90;14.50;;;8.00;99.90;;;;;;4995681;28;20701;-91
2021/10/28 19:27:52;;;;;;;13.60;12.60;;;7.90;99.90;;;;;;4984081;28;20767;-91
2021/10/28 19:30:27;;;;;;;13.40;12.40;;;7.90;99.90;;;;;;4986741;28;21187;-91
2021/10/28 19:33:16;;;;;;;13.53;12.40;;;7.90;99.90;;;;;;4990559;28;20628;-94
2021/10/28 19:35:50;;;;;;;12.23;11.33;;;7.80;99.90;;;;;;4994424;28;21163;-93
2021/10/28 19:38:31;;;;;;;12.93;11.73;;;7.80;99.90;;;;;;4992850;28;20649;-93
2021/10/28 19:41:33;;;;;;;12.20;11.10;;;7.70;99.90;;;;;;4993181;28;20649;-96
2021/10/28 19:47:15;;;;;;;14.03;12.90;;;7.60;99.90;;;;;;4949300;29;20879;-94
2021/10/28 19:49:50;;;;;;;12.57;11.60;;;7.50;99.90;;;;;;4948155;29;20663;-94
2021/10/28 21:01:52;;;;;;;18.93;17.40;;;7.00;99.90;;;;;;4976299;28;20659;-95
2021/10/28 21:38:06;;;;;;;20.13;18.33;;;6.80;99.90;;;;;;4986672;28;20621;-96
2021/10/28 21:41:01;;;;;;;20.67;18.90;;;6.70;99.90;;;;;;4977469;28;20669;-96
2021/10/28 21:43:32;;;;;;;23.60;21.40;;;6.70;99.90;;;;;;4977006;28;20777;-96
2021/10/28 21:46:01;;;;;;;23.23;21.13;;;6.70;99.90;;;;;;4973608;28;20642;-96
2021/10/28 21:48:30;;;;;;;22.67;20.47;;;6.70;99.90;;;;;;4983976;28;21171;-96
2021/10/28 21:51:13;;;;;;;24.80;22.80;;;6.70;99.90;;;;;;4976316;28;21103;-96
2021/10/28 21:53:43;;;;;;;20.80;19.00;;;6.70;99.90;;;;;;4981198;28;20626;-96
2021/10/28 21:56:23;;;;;;;24.77;22.50;;;6.60;99.90;;;;;;4973256;28;20750;-96
2021/10/28 22:01:46;;;;;;;25.53;23.43;;;6.60;99.90;;;;;;4997619;28;20654;-96
2021/10/28 22:24:36;;;;;;;27.67;25.27;;;6.50;99.90;;;;;;4988225;28;20748;-95
2021/10/28 22:29:53;;;;;;;29.57;26.87;;;6.40;99.90;;;;;;5000830;28;20780;-95
2021/10/28 22:32:43;;;;;;;31.60;28.80;;;6.40;99.90;;;;;;5004717;28;20648;-96
2021/10/28 22:38:03;;;;;;;30.80;28.00;;;6.40;99.90;;;;;;4991525;28;20628;-95
2021/10/28 23:41:05;;;;;;;34.03;30.83;;;5.90;99.90;;;;;;5035264;28;20716;-95
2021/10/28 23:43:33;;;;;;;32.33;29.23;;;6.00;99.90;;;;;;5028392;28;21281;-95
2021/10/28 23:46:02;;;;;;;35.43;31.87;;;5.90;99.90;;;;;;5025085;28;20658;-95
2021/10/28 23:48:44;;;;;;;33.30;30.30;;;5.90;99.90;;;;;;5035998;28;20653;-96
